Timişoara, România

10:11 AM EET on decembrie 04, 2016 (GMT +0200)
Giarmata | | Change Station

Elev 348 ft 45.81 °N, 21.33 °E | Updated 11 minutes ago

Clear
Cer senin
28 °F
Feels Like 23 °F
N
5
Vânt variabil Vânt from est

astăzi
High -- | Low -- °F
--% Chance of Precip.
Ieri
High -- | Low -- °F
Precip. -- inch
Presiunea 30.45 inch
Vizibilitatea -9999.0 mile
Nori
Vânt rece 23 °F
Punctul de rouă 27 °F
Umiditatea 93%
Precipitaţii 0.00 inch
Adâncimea zăpezii Not available.
7:58 AM 4:49 PM
Semilună în creştere, 21% visible
METAR LRTR 040800Z 10004KT CAVOK M02/M03 Q1031
Presiunea 30.45 inch
Vizibilitatea -9999.0 mile
Nori
Vânt rece 23 °F
Punctul de rouă 27 °F
Umiditatea 93%
Precipitaţii 0.00 inch
Adâncimea zăpezii Not available.
7:58 AM 4:49 PM
Semilună în creştere, 21% visible
METAR LRTR 040800Z 10004KT CAVOK M02/M03 Q1031

10-Day Weather Forecast

×

Almanac

Astronomie

Dec. 04, 2016 Răsărit Apus
Timpul Actual
Crepusculul Civil
Crepusculul nautic
Răsărit Astronomic
Luna
Durata zilei lumină
Lungimea zilei
Tomorrow will be .
, % of the Moon is Illuminated

Extremele de azi

Country Highs Country Lows

Community

WunderPhotos

Upload Photos

1,955,587 photos uploaded!

WunderBlog® & News

Nearby

Calitatea aerului

  Calitatea aerului Index de calitate a aerului Poluat
Not available.

Adâncimea zapezii

Station Depth Elevation

Earthquake Activity

Oraş Distance Mag. Time & Date
Minimum magnitude displayed is 2.5.

Coastal Water Temperatures

Locul Temperatura

Stations

Nearby Weather Stations

Locaţia staţiei Temp Vânt rece Punctul de rouă Umiditatea Vânt Precip. Elev Actualizare Type